Flight Track Log - Related Links

Times and Time Zones

All times are in EDT time to prevent confusion due to time zone crossing. See the UAL1033 flight status page for this flight to view local times or setup timezone preferences in your user account.

Time Position Orientation Groundspeed Altitude Reporting Facility
EDT Latitude Longitude Course Direction KTS MPH feet Rate Location/Type
Thu 10:25:20 PM 29.9650 -95.3466 150° Southeast 171 197 400  Level FlightAware ADS-B (KHOU)
Thu 10:25:35 PM 29.9555 -95.3407 161° South 160 184 1,300 3,300 Climbing FlightAware ADS-B (KHOU)
Thu 10:25:40 PM 29.9513 -95.3397 175° South 161 185 1,500 2,400 Climbing FlightAware ADS-B (KHOU)
Thu 10:25:45 PM 29.9475 -95.3401 193° South 166 191 1,700 2,000 Climbing FlightAware ADS-B (KHOU)
Thu 10:25:49 PM 29.9438 -95.3417 208° Southwest 170 196 1,800 1,800 Climbing FlightAware ADS-B (KHOU)
Thu 10:25:55 PM 29.9408 -95.3440 220° Southwest 177 204 2,000 1,636 Climbing FlightAware ADS-B (KHOU)
Thu 10:26:00 PM 29.9375 -95.3475 226° Southwest 185 213 2,100 2,400 Climbing FlightAware ADS-B (KHOU)
Thu 10:26:15 PM 29.9282 -95.3586 227° Southwest 197 227 2,800 2,400 Climbing FlightAware ADS-B (KHOU)
Thu 10:26:30 PM 29.9184 -95.3706 227° Southwest 220 253 3,300 2,000 Climbing FlightAware ADS-B (KHOU)
Thu 10:26:45 PM 29.9072 -95.3838 227° Southwest 234 269 3,800 1,600 Climbing FlightAware ADS-B (KHOU)
Thu 10:27:00 PM 29.8957 -95.3977 228° Southwest 242 278 4,100 2,129 Climbing FlightAware ADS-B (KHOU)
Thu 10:27:16 PM 29.8835 -95.4132 228° Southwest 241 277 4,900 3,111 Climbing FlightAware ADS-B
Thu 10:27:27 PM 29.8751 -95.4243 232° Southwest 247 284 5,500 3,158 Climbing FlightAware ADS-B
Thu 10:27:35 PM 29.8701 -95.4322 239° Southwest 252 290 5,900 3,000 Climbing FlightAware ADS-B (KHOU)
Thu 10:27:45 PM 29.8654 -95.4448 254° West 259 298 6,400 3,200 Climbing FlightAware ADS-B (KHOU)
Thu 10:27:50 PM 29.8641 -95.4518 263° West 263 303 6,700 3,000 Climbing FlightAware ADS-B (KHOU)
Thu 10:27:55 PM 29.8638 -95.4583 270° West 267 307 6,900 3,333 Climbing FlightAware ADS-B (KHOU)
Thu 10:27:59 PM 29.8643 -95.4658 279° West 269 310 7,200 3,600 Climbing FlightAware ADS-B (KHOU)
Thu 10:28:05 PM 29.8657 -95.4730 288° West 269 310 7,500 3,600 Climbing FlightAware ADS-B (KHOU)
Thu 10:28:19 PM 29.8719 -95.4924 291° West 269 310 8,400 3,556 Climbing FlightAware ADS-B (KHOU)
Thu 10:28:32 PM 29.8780 -95.5107 292° West 272 313 9,100 3,067 Climbing FlightAware ADS-B
Thu 10:29:04 PM 29.8934 -95.5542 292° West 286 329 10,700 2,190 Climbing FlightAware ADS-B (KHOU)
Thu 10:29:35 PM 29.9091 -95.5999 292° West 327 376 11,400 1,574 Climbing FlightAware ADS-B (KHOU)
Thu 10:30:05 PM 29.9265 -95.6513 292° West 358 412 12,300 2,400 Climbing FlightAware ADS-B (KHOU)
Thu 10:30:35 PM 29.9447 -95.7050 292° West 365 420 13,800 3,097 Climbing FlightAware ADS-B (KHOU)
Thu 10:31:07 PM 29.9651 -95.7652 292° West 371 427 15,500 3,000 Climbing FlightAware ADS-B
Thu 10:31:37 PM 29.9820 -95.8157 292° West 376 433 16,900 2,852 Climbing FlightAware ADS-B
Thu 10:32:08 PM 30.0025 -95.8767 292° West 382 440 18,400 2,776 Climbing FlightAware ADS-B
Thu 10:32:44 PM 30.0266 -95.9479 292° West 390 449 20,000 2,507 Climbing FlightAware ADS-B (KHOU)
Thu 10:33:15 PM 30.0463 -96.0066 292° West 396 456 21,200 2,459 Climbing FlightAware ADS-B (KHOU)
Thu 10:33:45 PM 30.0645 -96.0677 286° West 400 460 22,500 2,400 Climbing FlightAware ADS-B (KHOU)
Thu 10:33:55 PM 30.0690 -96.0887 283° West 403 464 22,800 977 Climbing FlightAware ADS-B (KHOU)
Thu 10:34:28 PM 30.0801 -96.1543 281° West 425 489 23,200 1,355 Climbing FlightAware ADS-B
Thu 10:34:57 PM 30.0909 -96.2261 280° West 431 496 24,200 3,051 Climbing FlightAware ADS-B
Thu 10:35:27 PM 30.1009 -96.2920 280° West 409 471 26,200 3,000 Climbing FlightAware ADS-B
Thu 10:35:57 PM 30.1108 -96.3577 280° West 418 481 27,200 1,778 Climbing FlightAware ADS-B
Thu 10:36:48 PM 30.1280 -96.4694 280° West 427 491 28,600 1,926 Climbing FlightAware ADS-B
Thu 10:37:18 PM 30.1381 -96.5359 280° West 421 484 29,800 2,597 Climbing FlightAware ADS-B
Thu 10:37:55 PM 30.1507 -96.6178 280° West 409 471 31,500 2,776 Climbing FlightAware ADS-B (KHOU)
Thu 10:38:25 PM 30.1601 -96.6808 280° West 396 456 32,900 2,400 Climbing FlightAware ADS-B (KHOU)
Thu 10:38:55 PM 30.1694 -96.7424 280° West 392 451 33,900 2,339 Climbing FlightAware ADS-B (KHOU)
Thu 10:39:24 PM 30.1785 -96.8026 280° West 381 438 35,200 2,494 Climbing FlightAware ADS-B (KHOU)
Thu 10:40:12 PM 30.1920 -96.8941 280° West 363 418 37,100 2,077 Climbing FlightAware ADS-B
Thu 10:40:42 PM 30.2011 -96.9547 280° West 360 414 37,900 771 Climbing FlightAware ADS-B
Thu 10:41:22 PM 30.2123 -97.0299 280° West 365 420 38,000 102 Climbing FlightAware ADS-B
Thu 10:41:41 PM 30.2152 -97.0493 280° West 366 421 38,000  Level FlightAware ADS-B
Thu 10:42:18 PM 30.2284 -97.1393 280° West 370 426 38,000  Level FlightAware ADS-B
Thu 10:42:54 PM 30.2389 -97.2100 280° West 374 430 38,000  Level FlightAware ADS-B (KHOU)
Thu 10:43:25 PM 30.2476 -97.2694 280° West 376 433 38,000  Level FlightAware ADS-B (KHOU)
Thu 10:44:10 PM 30.2545 -97.3166 280° West 378 435 38,000  Level FlightAware ADS-B
Thu 10:44:54 PM 30.2739 -97.4479 281° West 384 442 38,000  Level FlightAware ADS-B (KHOU)
Thu 10:45:05 PM 30.2776 -97.4686 283° West 386 444 38,000  Level FlightAware ADS-B (KHOU)
Thu 10:45:08 PM 30.2782 -97.4716 282° West 386 444 38,000  Level FlightAware ADS-B
Thu 10:45:09 PM 30.2798 -97.4799 282° West 385 443 38,000  Level FlightAware ADS-B (KGTU)
Thu 10:45:40 PM 30.2930 -97.5357 287° West 389 448 38,000  Level FlightAware ADS-B
Thu 10:46:04 PM 30.3062 -97.5865 285° West 389 448 38,000  Level FlightAware ADS-B (KHOU)
Thu 10:46:10 PM 30.3086 -97.5969 284° West 389 448 38,000  Level FlightAware ADS-B
Thu 10:46:37 PM 30.3203 -97.6552 284° West 388 447 38,000  Level FlightAware ADS-B
Thu 10:46:44 PM 30.3225 -97.6652 283° West 389 448 38,000  Level FlightAware ADS-B
Thu 10:46:52 PM 30.3268 -97.6852 283° West 386 444 38,000  Level FlightAware ADS-B (KGTU)
Thu 10:47:19 PM 30.3369 -97.7306 285° West 386 444 38,000  Level FlightAware ADS-B
Thu 10:47:32 PM 30.3448 -97.7648 285° West 385 443 38,000  Level FlightAware ADS-B (KGTU)
Thu 10:47:49 PM 30.3528 -97.7990 285° West 384 442 38,000  Level FlightAware ADS-B
Thu 10:48:02 PM 30.3589 -97.8254 285° West 384 442 38,000  Level FlightAware ADS-B (KGTU)
Thu 10:48:20 PM 30.3666 -97.8584 285° West 383 441 38,000  Level FlightAware ADS-B (KHOU)
Thu 10:48:21 PM 30.3675 -97.8623 285° West 384 442 38,000  Level FlightAware ADS-B
Thu 10:48:32 PM 30.3726 -97.8850 285° West 383 441 38,000  Level FlightAware ADS-B (KGTU)
Thu 10:48:49 PM 30.3783 -97.9093 285° West 381 438 38,000  Level FlightAware ADS-B (KHOU)
Thu 10:49:11 PM 30.3899 -97.9602 285° West 383 441 38,000  Level FlightAware ADS-B (KGTU)
Thu 10:49:16 PM 30.3923 -97.9705 285° West 384 442 38,000  Level FlightAware ADS-B
Thu 10:49:19 PM 30.3915 -97.9673 285° West 382 440 38,000  Level FlightAware ADS-B (KHOU)
Thu 10:49:49 PM 30.4051 -98.0274 285° West 382 440 38,000  Level FlightAware ADS-B (KHOU)
Thu 10:49:51 PM 30.4077 -98.0390 285° West 382 440 38,000  Level FlightAware ADS-B
Thu 10:49:52 PM 30.4086 -98.0431 285° West 382 440 38,000  Level FlightAware ADS-B (KGTU)
Thu 10:50:20 PM 30.4191 -98.0904 285° West 381 438 38,000  Level FlightAware ADS-B (KHOU)
Thu 10:50:22 PM 30.4214 -98.1006 284° West 381 438 38,000  Level FlightAware ADS-B
Thu 10:50:32 PM 30.4258 -98.1207 284° West 381 438 38,000  Level FlightAware ADS-B (KGTU)
Thu 10:50:49 PM 30.4326 -98.1507 285° West 381 438 38,000  Level FlightAware ADS-B (KHOU)
Thu 10:50:53 PM 30.4352 -98.1617 284° West 381 438 38,000  Level FlightAware ADS-B
Thu 10:51:19 PM 30.4460 -98.2112 285° West 379 436 38,000  Level FlightAware ADS-B (KHOU)
Thu 10:51:22 PM 30.4480 -98.2204 283° West 378 435 38,000  Level FlightAware ADS-B (KGTU)
Thu 10:51:24 PM 30.4490 -98.2241 284° West 380 437 38,000  Level FlightAware ADS-B
Thu 10:51:52 PM 30.4609 -98.2777 283° West 378 435 38,000  Level FlightAware ADS-B (KGTU)
Thu 10:52:19 PM 30.4724 -98.3297 285° West 380 437 38,000  Level FlightAware ADS-B (KHOU)
Thu 10:52:22 PM 30.4739 -98.3368 283° West 379 436 38,000  Level FlightAware ADS-B (KGTU)
Thu 10:52:43 PM 30.4828 -98.3771 285° West 382 440 38,000  Level FlightAware ADS-B (KHOU)
Thu 10:53:19 PM 30.4932 -98.4238 285° West 382 440 38,000  Level FlightAware ADS-B (KHOU)
Thu 10:53:49 PM 30.5121 -98.5095 285° West 381 438 38,000  Level FlightAware ADS-B (KHOU)
Thu 10:53:55 PM 30.5143 -98.5200 284° West 382 440 38,000  Level FlightAware ADS-B
Thu 10:54:18 PM 30.5244 -98.5656 285° West 382 440 38,000  Level FlightAware ADS-B (KHOU)
Thu 10:54:23 PM 30.5261 -98.5737 285° West 382 440 38,000  Level FlightAware ADS-B (KHOU)
Thu 10:55:49 PM 30.5611 -98.7333 285° West 386 444 38,000  Level FlightAware ADS-B (KHOU)
Thu 10:56:59 PM 30.5943 -98.8856 285° West 385 443 38,000  Level FlightAware ADS-B (KHOU)
Thu 10:57:17 PM 30.6027 -98.9240 285° West 385 443 38,000 -105 Level FlightAware ADS-B (KHOU)
Thu 10:57:56 PM 30.6183 -98.9836 285° West 385 443 37,900  Descending Houston Center
Thu 10:58:57 PM 30.6431 -99.1036 283° West 385 443 38,000 49 Climbing Houston Center
Thu 10:59:59 PM 30.6700 -99.2239 285° West 385 443 38,000  Level Houston Center
Thu 11:01:00 PM 30.6953 -99.3456 284° West 387 445 38,000  Level Houston Center
Thu 11:02:02 PM 30.7256 -99.4906 284° West 387 445 38,000  Level Houston Center
Thu 11:03:03 PM 30.7517 -99.6114 284° West 387 445 38,000  Level Houston Center
Thu 11:04:04 PM 30.7767 -99.7333 283° West 388 447 38,000  Level Houston Center
Thu 11:05:06 PM 30.8017 -99.8553 283° West 389 448 38,000  Level Houston Center
Thu 11:06:07 PM 30.8269 -99.9764 284° West 389 448 38,000 -49 Level Houston Center
Thu 11:07:08 PM 30.8517 -100.0986 283° West 389 448 37,900  Descending Houston Center
Thu 11:08:10 PM 30.8761 -100.2192 283° West 389 448 38,000 49 Climbing Houston Center
Thu 11:09:11 PM 30.9006 -100.3394 283° West 387 445 38,000  Level Houston Center
Thu 11:10:12 PM 30.9297 -100.4825 283° West 383 441 38,000  Level Houston Center
Thu 11:11:14 PM 30.9542 -100.6019 283° West 383 441 38,000  Level Houston Center
Thu 11:12:15 PM 30.9786 -100.7211 283° West 382 440 38,000  Level Houston Center
Thu 11:13:16 PM 31.0014 -100.8425 282° West 382 440 38,000  Level Houston Center
Thu 11:14:17 PM 31.0267 -100.9625 284° West 382 440 38,000  Level Houston Center
Thu 11:15:19 PM 31.0500 -101.0867 282° West 386 444 38,000  Level Houston Center
Thu 11:16:20 PM 31.0733 -101.2094 283° West 386 444 38,000  Level Houston Center
Thu 11:17:21 PM 31.0978 -101.3331 283° West 390 449 38,000  Level Houston Center
Thu 11:18:22 PM 31.1197 -101.4572 282° West 390 449 38,000 -49 Level Houston Center
Thu 11:19:24 PM 31.1506 -101.6053 284° West 390 449 37,900  Descending Houston Center
Thu 11:20:25 PM 31.1739 -101.7308 282° West 391 450 38,000 49 Climbing Houston Center
Thu 11:21:26 PM 31.1969 -101.8547 282° West 391 450 38,000  Level Houston Center
Thu 11:22:27 PM 31.2208 -101.9783 283° West 391 450 38,000  Level Houston Center
Thu 11:23:28 PM 31.2447 -102.1019 283° West 391 450 38,000  Level Houston Center
Thu 11:24:10 PM 31.2597 -102.1867 282° West 393 452 38,000  Level Albuquerque Center
Thu 11:25:12 PM 31.2822 -102.3106 282° West 392 451 38,000  Level Albuquerque Center
Thu 11:26:13 PM 31.3044 -102.4339 282° West 391 450 38,000  Level Albuquerque Center
Thu 11:27:15 PM 31.3281 -102.5614 282° West 391 450 38,000  Level Albuquerque Center
Thu 11:28:17 PM 31.3550 -102.7092 282° West 391 450 38,000  Level Albuquerque Center
Thu 11:29:18 PM 31.3769 -102.8331 282° West 391 450 38,000 -49 Level Albuquerque Center
Thu 11:30:20 PM 31.3981 -102.9567 281° West 391 450 37,900  Descending Albuquerque Center
Thu 11:31:21 PM 31.4217 -103.0811 283° West 391 450 38,000 49 Climbing Albuquerque Center
Thu 11:32:23 PM 31.4444 -103.2058 282° West 391 450 38,000 387 Level Albuquerque Center
Thu 11:33:25 PM 31.4661 -103.3303 282° West 391 450 38,800 927 Climbing Albuquerque Center
Thu 11:34:26 PM 31.4872 -103.4550 281° West 391 450 39,900 585 Climbing Albuquerque Center
Thu 11:35:28 PM 31.5078 -103.5708 282° West 373 429 40,000  Climbing Albuquerque Center
Thu 11:36:29 PM 31.5336 -103.7156 282° West 375 432 39,900 -49 Descending Albuquerque Center
Thu 11:37:31 PM 31.5547 -103.8269 283° West 380 437 39,900 49 Level Albuquerque Center
Thu 11:38:32 PM 31.5744 -103.9467 281° West 379 436 40,000  Climbing Albuquerque Center
Thu 11:39:34 PM 31.5953 -104.0658 282° West 379 436 39,900 -48 Descending Albuquerque Center
Thu 11:40:36 PM 31.6144 -104.1858 281° West 379 436 39,900 49 Level Albuquerque Center
Thu 11:41:37 PM 31.6400 -104.3314 282° West 379 436 40,000 49 Climbing Albuquerque Center
Thu 11:42:39 PM 31.6603 -104.4533 281° West 379 436 40,000  Level Albuquerque Center
Thu 11:43:40 PM 31.6814 -104.5725 282° West 379 436 40,000  Level Albuquerque Center
Thu 11:44:42 PM 31.7014 -104.6947 281° West 379 436 40,000  Level Albuquerque Center
Thu 11:45:43 PM 31.7214 -104.8181 281° West 381 438 40,000 -49 Level Albuquerque Center
Thu 11:46:45 PM 31.7419 -104.9425 281° West 386 444 39,900 -49 Descending Albuquerque Center
Thu 11:47:46 PM 31.7625 -105.0656 281° West 387 445 39,900 49 Level Albuquerque Center
Thu 11:48:48 PM 31.7869 -105.2111 281° West 385 443 40,000 49 Climbing Albuquerque Center
Thu 11:49:49 PM 31.8061 -105.3336 280° West 385 443 40,000 -49 Level Albuquerque Center
Thu 11:50:51 PM 31.8250 -105.4564 280° West 384 442 39,900  Descending Albuquerque Center
Thu 11:51:52 PM 31.8439 -105.5772 280° West 380 437 40,000 49 Climbing Albuquerque Center
Thu 11:52:54 PM 31.8625 -105.6975 280° West 379 436 40,000  Level Albuquerque Center
Thu 11:53:55 PM 31.8817 -105.8181 281° West 379 436 40,000  Level Albuquerque Center
Thu 11:54:57 PM 31.9014 -105.9486 280° West 378 435 40,000 -49 Level Albuquerque Center
Thu 11:55:58 PM 31.9211 -106.0714 281° West 379 436 39,900  Descending Albuquerque Center
Thu 11:57:00 PM 31.9400 -106.1950 280° West 381 438 40,000 49 Climbing Albuquerque Center
Thu 11:58:01 PM 31.9633 -106.3194 282° West 388 447 40,000 -49 Level Albuquerque Center
Thu 11:59:03 PM 31.9956 -106.4397 288° West 388 447 39,900 -49 Descending Albuquerque Center
Fri 12:00:04 AM 32.0342 -106.5861 287° West 388 447 39,900  Level Albuquerque Center
Fri 12:01:05 AM 32.0653 -106.7086 287° West 389 448 39,900 49 Level Albuquerque Center
Fri 12:02:07 AM 32.0969 -106.8308 287° West 389 448 40,000 49 Climbing Albuquerque Center
Fri 12:03:08 AM 32.1289 -106.9556 287° West 393 452 40,000  Level Albuquerque Center
Fri 12:04:10 AM 32.1592 -107.0789 286° West 393 452 40,000  Level Albuquerque Center
Fri 12:05:11 AM 32.1886 -107.1953 287° West 388 447 40,000  Level Albuquerque Center
Fri 12:06:13 AM 32.2172 -107.3217 285° West 395 455 40,000  Level Albuquerque Center
Fri 12:07:14 AM 32.2472 -107.4456 286° West 395 455 40,000  Level Albuquerque Center
Fri 12:08:15 AM 32.2817 -107.5756 287° West 392 451 40,000  Level Albuquerque Center
Fri 12:09:17 AM 32.3117 -107.7006 286° West 392 451 40,000  Level Albuquerque Center
Fri 12:10:18 AM 32.3419 -107.8247 286° West 392 451 40,000  Level Albuquerque Center
Fri 12:15:47 AM 32.5113 -108.5406 286° West 400 460 40,000  Level FlightAware ADS-B
Fri 12:16:18 AM 32.5282 -108.6116 286° West 400 460 40,000  Level FlightAware ADS-B
Fri 12:17:06 AM 32.5521 -108.7122 286° West 400 460 40,000  Level FlightAware ADS-B
Fri 12:17:45 AM 32.5713 -108.7929 286° West 399 459 40,000  Level FlightAware ADS-B
Fri 12:18:20 AM 32.5830 -108.8422 286° West 398 458 40,000  Level FlightAware ADS-B
Fri 12:19:02 AM 32.5830 -108.8422 286° West 398 458 40,000  Level FlightAware ADS-B
Fri 12:20:30 AM 32.6530 -109.1399 286° West 393 452 40,000  Level FlightAware ADS-B
Fri 12:21:45 AM 32.6892 -109.2951 285° West 392 451 40,000  Level FlightAware ADS-B
Fri 12:22:16 AM 32.7038 -109.3578 285° West 390 449 40,000  Level FlightAware ADS-B
Fri 12:22:57 AM 32.7206 -109.4306 285° West 390 449 40,000  Level FlightAware ADS-B
Fri 12:23:47 AM 32.7471 -109.5454 285° West 389 448 40,000  Level FlightAware ADS-B
Fri 12:24:20 AM 32.7627 -109.6131 285° West 388 447 40,000  Level FlightAware ADS-B
Fri 12:24:57 AM 32.7730 -109.6579 285° West 386 444 40,000  Level FlightAware ADS-B
Fri 12:25:27 AM 32.7911 -109.7365 285° West 389 448 40,000  Level FlightAware ADS-B
Fri 12:26:13 AM 32.8035 -109.7913 285° West 389 448 40,000  Level FlightAware ADS-B
Fri 12:27:25 AM 32.8377 -109.9413 285° West 390 449 40,000  Level FlightAware ADS-B
Fri 12:28:03 AM 32.8676 -110.0733 285° West 390 449 40,000  Level FlightAware ADS-B
Fri 12:28:33 AM 32.8808 -110.1315 285° West 390 449 40,000  Level FlightAware ADS-B
Fri 12:29:09 AM 32.8981 -110.2086 285° West 388 447 40,000  Level FlightAware ADS-B
Fri 12:29:50 AM 32.9168 -110.2916 285° West 388 447 40,000  Level FlightAware ADS-B (KTLH)
Fri 12:30:24 AM 32.9313 -110.3567 285° West 393 452 40,000  Level FlightAware ADS-B
Fri 12:31:05 AM 32.9523 -110.4505 285° West 398 458 40,000  Level FlightAware ADS-B
Fri 12:31:45 AM 32.9712 -110.5352 285° West 400 460 40,000  Level FlightAware ADS-B
Fri 12:32:23 AM 32.9806 -110.5778 285° West 400 460 40,000  Level FlightAware ADS-B
Fri 12:33:00 AM 33.0054 -110.6899 285° West 402 463 40,000  Level FlightAware ADS-B
Fri 12:33:40 AM 33.0250 -110.7794 285° West 402 463 40,000  Level FlightAware ADS-B (VRMM / MLE)
Fri 12:34:16 AM 33.0419 -110.8565 285° West 401 461 40,000  Level FlightAware ADS-B
Fri 12:35:04 AM 33.0640 -110.9574 285° West 400 460 40,000  Level FlightAware ADS-B
Fri 12:35:36 AM 33.0791 -111.0271 285° West 399 459 40,000  Level FlightAware ADS-B (VRMM / MLE)
Fri 12:36:07 AM 33.0931 -111.0918 284° West 398 458 40,000  Level FlightAware ADS-B
Fri 12:36:57 AM 33.1165 -111.1992 284° West 395 455 40,000  Level FlightAware ADS-B (VRMM / MLE)
Fri 12:37:28 AM 33.1304 -111.2639 284° West 396 456 40,000  Level FlightAware ADS-B (VRMM / MLE)
Fri 12:38:11 AM 33.1345 -111.2833 284° West 396 456 40,000  Level FlightAware ADS-B
Fri 12:38:48 AM 33.1664 -111.4325 284° West 396 456 40,000  Level FlightAware ADS-B (VRMM / MLE)
Fri 12:40:36 AM 33.2150 -111.6604 284° West 397 457 40,000  Level FlightAware ADS-B (KPAN)
Fri 12:41:38 AM 33.2309 -111.7362 284° West 394 453 40,000  Level FlightAware ADS-B (KTLH)
Fri 12:42:28 AM 33.2646 -111.8970 284° West 393 452 40,000  Level FlightAware ADS-B (KTLH)
Fri 12:43:08 AM 33.2808 -111.9739 284° West 395 455 40,000  Level FlightAware ADS-B (KTLH)
Fri 12:43:50 AM 33.2998 -112.0661 284° West 394 453 40,000  Level FlightAware ADS-B (KTLH)
Fri 12:44:48 AM 33.3261 -112.1930 284° West 395 455 40,000  Level FlightAware ADS-B (KTLH)
Fri 12:47:13 AM 33.3885 -112.4980 284° West 395 455 40,000  Level FlightAware ADS-B (VRMM / MLE)
Fri 12:48:25 AM 33.4191 -112.6485 282° West 388 447 40,000  Level FlightAware ADS-B (VRMM / MLE)
Fri 12:50:14 AM 33.4645 -112.8757 282° West 388 447 40,000 -38 Level FlightAware ADS-B (VRMM / MLE)
Fri 12:51:02 AM 33.4775 -112.9475 282° West 391 450 39,900  Descending Albuquerque Center
Fri 12:52:03 AM 33.5069 -113.0997 283° West 391 450 40,000 49 Climbing Albuquerque Center
Fri 12:53:04 AM 33.5311 -113.2275 283° West 392 451 40,000  Level Albuquerque Center
Fri 12:54:05 AM 33.5553 -113.3578 283° West 396 456 40,000  Level Albuquerque Center
Fri 12:55:06 AM 33.5800 -113.4872 283° West 398 458 40,000  Level Albuquerque Center
Fri 12:56:07 AM 33.6044 -113.6175 283° West 399 459 40,000  Level Albuquerque Center
Fri 12:57:08 AM 33.6303 -113.7517 283° West 400 460 40,000  Level Albuquerque Center
Fri 12:58:08 AM 33.6711 -113.8761 292° West 400 460 40,000  Level Albuquerque Center
Fri 12:59:09 AM 33.7147 -113.9986 293° West 400 460 40,000  Level Albuquerque Center
Fri 01:00:10 AM 33.7592 -114.1200 294° West 399 459 40,000 -49 Level Albuquerque Center
Fri 01:01:11 AM 33.8000 -114.2367 293° West 399 459 39,900  Descending Albuquerque Center
Fri 01:02:12 AM 33.8433 -114.3564 294° West 396 456 40,000 50 Climbing Albuquerque Center
Fri 01:03:12 AM 33.8867 -114.4753 294° West 395 455 40,000  Level Albuquerque Center
Fri 01:04:13 AM 33.9283 -114.5953 293° West 392 451 40,000  Level Albuquerque Center
Fri 01:05:41 AM 33.9906 -114.7728 293° West 387 445 40,000  Level Los Angeles Center
Fri 01:11:39 AM 34.2380 -115.5028 292° West 379 436 40,000  Level FlightAware ADS-B
Fri 01:12:14 AM 34.2520 -115.5444 292° West 379 436 40,000  Level FlightAware ADS-B
Fri 01:12:45 AM 34.2806 -115.6294 292° West 379 436 40,000  Level FlightAware ADS-B (KBNG)
Fri 01:13:18 AM 34.3031 -115.6964 292° West 380 437 40,000  Level FlightAware ADS-B
Fri 01:13:49 AM 34.3227 -115.7556 292° West 378 435 40,000  Level FlightAware ADS-B (KBNG)
Fri 01:14:22 AM 34.3425 -115.8148 292° West 378 435 40,000  Level FlightAware ADS-B
Fri 01:14:58 AM 34.3666 -115.8869 292° West 378 435 40,000  Level FlightAware ADS-B
Fri 01:15:42 AM 34.3891 -115.9546 292° West 378 435 40,000  Level FlightAware ADS-B (KBNG)
Fri 01:16:30 AM 34.4236 -116.0583 292° West 379 436 40,000  Level FlightAware ADS-B (KBNG)
Fri 01:17:15 AM 34.4581 -116.1628 292° West 379 436 40,000  Level FlightAware ADS-B (KBNG)
Fri 01:17:46 AM 34.4782 -116.2237 292° West 378 435 40,000  Level FlightAware ADS-B (KBNG)
Fri 01:18:24 AM 34.4967 -116.2800 292° West 379 436 40,000  Level FlightAware ADS-B (KBNG)
Fri 01:18:55 AM 34.5226 -116.3593 292° West 378 435 40,000  Level FlightAware ADS-B (KBNG)
Fri 01:19:49 AM 34.5557 -116.4601 292° West 379 436 40,000  Level FlightAware ADS-B (KBNG)
Fri 01:20:21 AM 34.5743 -116.5173 291° West 378 435 40,000  Level FlightAware ADS-B (KBNG)
Fri 01:21:11 AM 34.6029 -116.6048 291° West 380 437 40,000  Level FlightAware ADS-B (KBNG)
Fri 01:21:47 AM 34.6324 -116.6955 292° West 377 434 40,000  Level FlightAware ADS-B (KBNG)
Fri 01:22:28 AM 34.6588 -116.7771 291° West 379 436 40,000  Level FlightAware ADS-B (KBNG)
Fri 01:22:59 AM 34.6789 -116.8389 291° West 378 435 40,000  Level FlightAware ADS-B
Fri 01:23:45 AM 34.7074 -116.9278 291° West 380 437 40,000  Level FlightAware ADS-B
Fri 01:24:46 AM 34.7472 -117.0515 291° West 383 441 40,000  Level FlightAware ADS-B
Fri 01:25:37 AM 34.7801 -117.1540 291° West 387 445 40,000  Level FlightAware ADS-B
Fri 01:26:15 AM 34.8037 -117.2279 291° West 387 445 40,000  Level FlightAware ADS-B
Fri 01:27:01 AM 34.8343 -117.3234 291° West 389 448 40,000  Level FlightAware ADS-B
Fri 01:28:12 AM 34.8747 -117.4431 291° West 387 445 40,000  Level Los Angeles Center
Fri 01:29:14 AM 34.9142 -117.5686 291° West 388 447 40,000  Level Los Angeles Center
Fri 01:30:15 AM 34.9558 -117.6981 291° West 389 448 40,000 -195 Level Los Angeles Center
Fri 01:31:17 AM 34.9936 -117.8194 291° West 389 448 39,600 -829 Descending Los Angeles Center
Fri 01:32:18 AM 35.0322 -117.9400 291° West 384 442 38,300 -787 Descending Los Angeles Center
Fri 01:33:19 AM 35.0775 -118.0853 291° West 382 440 38,000 -146 Descending Los Angeles Center
Fri 01:34:21 AM 35.1156 -118.2050 291° West 381 438 38,000  Level Los Angeles Center
Fri 01:35:22 AM 35.1517 -118.3250 290° West 378 435 38,000  Level Los Angeles Center
Fri 01:36:23 AM 35.1889 -118.4461 291° West 383 441 38,000  Level Los Angeles Center
Fri 01:37:24 AM 35.2275 -118.5719 291° West 387 445 38,000 -49 Level Los Angeles Center
Fri 01:38:26 AM 35.2650 -118.6969 290° West 390 449 37,900  Descending Los Angeles Center
Fri 01:39:27 AM 35.3042 -118.8225 291° West 394 453 38,000 49 Climbing Los Angeles Center
Fri 01:40:28 AM 35.3422 -118.9478 290° West 396 456 38,000  Level Los Angeles Center
Fri 01:41:29 AM 35.3797 -119.0736 290° West 396 456 38,000  Level Los Angeles Center
Fri 01:42:31 AM 35.4125 -119.2011 288° West 396 456 38,000  Level Los Angeles Center
Fri 01:43:32 AM 35.4433 -119.3292 286° West 396 456 38,000  Level Los Angeles Center
Fri 01:44:33 AM 35.4800 -119.4819 286° West 394 453 38,000  Level Los Angeles Center
Fri 01:45:34 AM 35.5106 -119.6089 287° West 391 450 38,000  Level Los Angeles Center
Fri 01:46:35 AM 35.5397 -119.7350 286° West 389 448 38,000  Level Los Angeles Center
Fri 01:47:37 AM 35.5708 -119.8617 287° West 389 448 38,000  Level Los Angeles Center
Fri 01:48:38 AM 35.5997 -119.9886 286° West 389 448 38,000  Level Los Angeles Center
Fri 01:49:39 AM 35.6300 -120.1153 286° West 389 448 38,000  Level Los Angeles Center
Fri 01:50:19 AM 35.6536 -120.2158 286° West 391 450 38,000  Level Oakland Center
Fri 01:51:20 AM 35.6836 -120.3406 287° West 389 448 38,000  Level Oakland Center
Fri 01:52:21 AM 35.7353 -120.4536 299° West 388 447 38,000 -419 Level Oakland Center
Fri 01:58:01 AM 36.1341 -121.0430 310° West 396 456 35,200 -586 Descending FlightAware ADS-B
Fri 01:58:50 AM 36.1914 -121.1280 310° West 398 458 34,200 -1,552 Descending FlightAware ADS-B
Fri 02:01:53 AM 36.4188 -121.4360 325° Northwest 407 468 29,200 -1,591 Descending FlightAware ADS-B
Fri 02:02:25 AM 36.4682 -121.4780 326° Northwest 404 465 28,500 -1,839 Descending FlightAware ADS-B
Fri 02:02:55 AM 36.5154 -121.5180 326° Northwest 409 471 27,300 -2,361 Descending FlightAware ADS-B
Fri 02:03:26 AM 36.5633 -121.5580 326° Northwest 410 472 26,100 -2,286 Descending FlightAware ADS-B
Fri 02:03:58 AM 36.6136 -121.6010 326° Northwest 401 461 24,900 -2,516 Descending FlightAware ADS-B
Fri 02:04:28 AM 36.6596 -121.6400 326° Northwest 394 453 23,500 -2,951 Descending FlightAware ADS-B
Fri 02:04:59 AM 36.7065 -121.6790 326° Northwest 389 448 21,900 -3,000 Descending FlightAware ADS-B
Fri 02:05:32 AM 36.7542 -121.7200 325° Northwest 385 443 20,300 -2,000 Descending FlightAware ADS-B
Fri 02:05:50 AM 36.7558 -121.7209 325° Northwest 384 442 20,200 -2,859 Descending FlightAware ADS-B (KSAC)
Fri 02:08:43 AM 37.0251 -121.9510 326° Northwest 355 409 11,200 -2,971 Descending FlightAware ADS-B
Fri 02:09:14 AM 37.0669 -121.9870 326° Northwest 345 397 10,100 -1,660 Descending FlightAware ADS-B
Fri 02:09:30 AM 37.0872 -122.0040 325° Northwest 328 377 9,900 -563 Descending FlightAware ADS-B
Fri 02:09:46 AM 37.1061 -122.0200 325° Northwest 311 358 9,800 -194 Descending FlightAware ADS-B
Fri 02:10:01 AM 37.1232 -122.0350 325° Northwest 301 346 9,800  Level FlightAware ADS-B
Fri 02:10:21 AM 37.1455 -122.0540 325° Northwest 274 315 9,800  Level FlightAware ADS-B
Fri 02:10:35 AM 37.1594 -122.0660 326° Northwest 271 312 9,800  Level FlightAware ADS-B
Fri 02:10:40 AM 37.1650 -122.0710 329° Northwest 271 312 9,800 -500 Level FlightAware ADS-B
Fri 02:10:47 AM 37.1727 -122.0760 334° Northwest 270 311 9,700 -1,059 Descending FlightAware ADS-B
Fri 02:10:57 AM 37.1844 -122.0810 341° North 270 311 9,500 -1,059 Descending FlightAware ADS-B
Fri 02:11:04 AM 37.1926 -122.0840 346° North 270 311 9,400 -1,440 Descending FlightAware ADS-B
Fri 02:11:22 AM 37.2153 -122.0900 348° North 272 313 8,900 -1,765 Descending FlightAware ADS-B
Fri 02:11:38 AM 37.2351 -122.0950 349° North 272 313 8,400 -1,688 Descending FlightAware ADS-B
Fri 02:11:54 AM 37.2545 -122.1000 348° North 274 315 8,000 -1,548 Descending FlightAware ADS-B
Fri 02:12:09 AM 37.2730 -122.1050 348° North 275 316 7,600 -1,355 Descending FlightAware ADS-B
Fri 02:12:25 AM 37.2934 -122.1100 348° North 275 316 7,300 -1,355 Descending FlightAware ADS-B
Fri 02:12:40 AM 37.3122 -122.1150 348° North 272 313 6,900 -1,895 Descending FlightAware ADS-B
Fri 02:12:44 AM 37.3072 -122.1140 348° North 267 307 6,700 -1,000 Descending FlightAware ADS-B (EPLL / LCJ)
Fri 02:12:58 AM 37.3332 -122.1210 348° North 262 302 6,600 -800 Descending FlightAware ADS-B
Fri 02:13:14 AM 37.3519 -122.1260 348° North 253 291 6,300 -1,355 Descending FlightAware ADS-B
Fri 02:13:29 AM 37.3692 -122.1300 348° North 242 278 5,900 -1,304 Descending FlightAware ADS-B
Fri 02:13:37 AM 37.3778 -122.1330 348° North 236 272 5,800 -1,200 Descending FlightAware ADS-B
Fri 02:13:39 AM 37.3741 -122.1319 348° North 238 274 5,700 -750 Descending FlightAware ADS-B (EPLL / LCJ)
Fri 02:13:53 AM 37.3945 -122.1370 348° North 232 267 5,600 -632 Descending FlightAware ADS-B
Fri 02:13:58 AM 37.3918 -122.1364 348° North 232 267 5,500 -1,059 Descending FlightAware ADS-B (EPLL / LCJ)
Fri 02:14:10 AM 37.4118 -122.1420 348° North 230 265 5,300 -1,059 Descending FlightAware ADS-B
Fri 02:14:15 AM 37.4158 -122.1428 348° North 229 264 5,200 -600 Descending FlightAware ADS-B (EPLL / LCJ)
Fri 02:14:20 AM 37.4225 -122.1450 349° North 229 264 5,200 -667 Level FlightAware ADS-B
Fri 02:14:24 AM 37.4267 -122.1450 354° North 229 264 5,100 -857 Descending FlightAware ADS-B
Fri 02:14:27 AM 37.4302 -122.1460 358° North 230 265 5,100 -857 Level FlightAware ADS-B
Fri 02:14:31 AM 37.4342 -122.1450 North 230 265 5,000 -857 Descending FlightAware ADS-B
Fri 02:14:34 AM 37.4373 -122.1450 North 229 264 5,000 -667 Level FlightAware ADS-B
Fri 02:14:49 AM 37.4534 -122.1430 North 227 261 4,800 -1,200 Descending FlightAware ADS-B
Fri 02:14:59 AM 37.4637 -122.1415 North 227 261 4,500 -1,500 Descending FlightAware ADS-B (EPLL / LCJ)
Fri 02:15:05 AM 37.4696 -122.1410 North 228 262 4,400 -1,200 Descending FlightAware ADS-B
Fri 02:15:19 AM 37.4800 -122.1389 North 226 260 4,100 -1,200 Descending FlightAware ADS-B (EPLL / LCJ)
Fri 02:15:20 AM 37.4854 -122.1380 North 224 258 4,100 -1,125 Level FlightAware ADS-B
Fri 02:15:35 AM 37.5008 -122.1360 North 220 253 3,800 -1,174 Descending FlightAware ADS-B
Fri 02:16:06 AM 37.5312 -122.1372 333° Northwest 211 243 3,200 -955 Descending FlightAware ADS-B (EPLL / LCJ)
Fri 02:16:19 AM 37.5395 -122.1490 304° West 208 239 3,100 -353 Descending FlightAware ADS-B
Fri 02:16:23 AM 37.5403 -122.1530 283° West 203 234 3,100  Level FlightAware ADS-B
Fri 02:16:26 AM 37.5408 -122.1580 275° West 200 230 3,100  Level FlightAware ADS-B
Fri 02:16:34 AM 37.5412 -122.1660 274° West 195 224 3,100  Level FlightAware ADS-B
Fri 02:16:39 AM 37.5417 -122.1710 279° West 195 224 3,100  Level FlightAware ADS-B
Fri 02:16:43 AM 37.5425 -122.1770 283° West 195 224 3,100  Level FlightAware ADS-B
Fri 02:16:50 AM 37.5440 -122.1840 287° West 193 222 3,100 -545 Level FlightAware ADS-B
Fri 02:16:54 AM 37.5453 -122.1880 292° West 193 222 3,000 -1,200 Descending FlightAware ADS-B
Fri 02:17:00 AM 37.5474 -122.1940 298° West 195 224 2,900 -1,500 Descending FlightAware ADS-B
Fri 02:17:06 AM 37.5502 -122.1997 299° West 198 228 2,700 -1,385 Descending FlightAware ADS-B (EPLL / LCJ)
Fri 02:17:13 AM 37.5532 -122.2070 300° West 198 228 2,600 -857 Descending FlightAware ADS-B
Fri 02:17:27 AM 37.5596 -122.2210 298° West 193 222 2,400 -857 Descending FlightAware ADS-B
Fri 02:17:34 AM 37.5625 -122.2280 297° West 191 220 2,300 -1,091 Descending FlightAware ADS-B
Fri 02:17:49 AM 37.5686 -122.2430 297° West 188 216 2,000 -1,000 Descending FlightAware ADS-B
Fri 02:17:58 AM 37.5719 -122.2510 296° West 185 213 1,900 -947 Descending FlightAware ADS-B
Fri 02:18:08 AM 37.5757 -122.2610 297° West 185 213 1,700 -1,600 Descending FlightAware ADS-B
Fri 02:18:13 AM 37.5776 -122.2658 297° West 183 211 1,500 -1,500 Descending FlightAware ADS-B (EPLL / LCJ)
Fri 02:18:20 AM 37.5806 -122.2730 298° West 180 207 1,400 -1,200 Descending FlightAware ADS-B
Fri 02:18:33 AM 37.5853 -122.2840 298° West 176 203 1,100 -643 Descending FlightAware ADS-B
Fri 02:18:48 AM 37.5908 -122.2970 298° West 153 176 1,100 -522 Level FlightAware ADS-B
Fri 02:18:56 AM 37.5936 -122.3030 298° West 145 167 900 -1,250 Descending FlightAware ADS-B
Fri 02:19:12 AM 37.5984 -122.3150 297° West 140 161 600 -828 Descending FlightAware ADS-B
Fri 02:19:25 AM 37.6022 -122.3240 298° West 132 152 500 -571 Descending FlightAware ADS-B
Fri 02:19:33 AM 37.6046 -122.3300 298° West 129 148 400 -600 Descending FlightAware ADS-B
Fri 02:19:45 AM 37.6076 -122.3370 298° West 127 146 300 -750 Descending FlightAware ADS-B
Fri 02:19:57 AM 37.6111 -122.3450 299° West 127 146 100 -111 Descending FlightAware ADS-B
Fri 02:20:39 AM 37.6192 -122.3703 299° West 153 176 200 143 Climbing Oakland Center

Login

Don't have an account? Register now (free) for customized features, flight alerts, and more!